Time;durP1;ratioP1;P1;durP2;ratioP2;P2;SDS_P1;SDS_P2;PMS_P1;PMS_P2;Temp;Humidity;BMP_temperature;BMP_pressure;BME280_temperature;BME280_humidity;BME280_pressure;Samples;Min_cycle;Max_cycle;Signal;HPM_P1;HPM_P2
2022/09/14 00:01:31;;;;;;;4.87;3.20;;;;;;;17.08;67.39;97799.38;1618706;88;27426;-57
2022/09/14 00:03:59;;;;;;;;;;;;;;;17.07;67.32;97797.77;1620729;88;25532;-57
2022/09/14 00:06:28;;;;;;;3.20;2.75;;;;;;;17.03;67.41;97794.95;1618722;88;25456;-57
2022/09/14 00:08:57;;;;;;;4.83;3.20;;;;;;;16.99;67.46;97789.16;1618398;88;26086;-57
2022/09/14 00:11:26;;;;;;;3.90;2.90;;;;;;;16.99;67.64;97791.92;1618607;88;25626;-58
2022/09/14 00:13:55;;;;;;;5.77;3.07;;;;;;;16.97;67.70;97790.92;1619130;88;27608;-57
2022/09/14 00:16:29;;;;;;;4.03;3.02;;;;;;;16.94;67.83;97780.61;1618655;88;25843;-58
2022/09/14 00:19:04;;;;;;;3.80;2.90;;;;;;;16.98;67.75;97786.20;1618641;88;25472;-58
2022/09/14 00:21:37;;;;;;;3.08;2.75;;;;;;;17.00;67.65;97781.06;1618326;88;27787;-57
2022/09/14 00:24:05;;;;;;;3.67;2.75;;;;;;;17.05;67.64;97783.50;1618917;88;25470;-57
2022/09/14 00:26:32;;;;;;;5.20;2.98;;;;;;;17.06;67.63;97773.43;1618582;88;28543;-57
2022/09/14 00:29:03;;;;;;;3.45;2.90;;;;;;;17.10;67.64;97779.02;1618732;88;25717;-57
2022/09/14 00:31:28;;;;;;;3.85;2.70;;;;;;;17.13;67.61;97781.02;1602233;88;25687;-57
2022/09/14 00:33:54;;;;;;;4.45;2.75;;;;;;;17.15;67.64;97774.53;1618705;88;25721;-57
2022/09/14 00:36:25;;;;;;;4.72;2.80;;;;;;;17.16;67.60;97778.88;1618792;88;25610;-58
2022/09/14 00:38:56;;;;;;;3.83;3.40;;;;;;;17.16;67.88;97777.50;1618822;88;28199;-58
2022/09/14 00:41:28;;;;;;;3.72;3.22;;;;;;;17.16;67.53;97778.11;1618646;88;34662;-57
2022/09/14 00:44:15;;;;;;;3.58;3.17;;;;;;;17.15;67.65;97775.92;1618701;88;25772;-57
2022/09/14 00:46:45;;;;;;;3.20;2.90;;;;;;;17.15;67.71;97774.53;1618869;88;26262;-57
2022/09/14 00:49:23;;;;;;;4.78;3.00;;;;;;;17.13;67.58;97770.56;1618954;88;32243;-57
2022/09/14 00:52:09;;;;;;;4.40;2.92;;;;;;;17.08;67.64;97763.39;1618656;88;28317;-57
2022/09/14 00:54:46;;;;;;;4.75;3.27;;;;;;;17.10;67.79;97778.23;1618823;88;25678;-57
2022/09/14 00:57:15;;;;;;;3.87;2.90;;;;;;;17.08;67.80;97764.78;1618829;88;25677;-57
2022/09/14 00:59:43;;;;;;;3.92;3.35;;;;;;;17.08;67.78;97766.16;1618710;88;25994;-58
2022/09/14 01:02:15;;;;;;;4.22;3.17;;;;;;;17.08;67.91;97763.97;1618915;88;25536;-57
2022/09/14 01:04:43;;;;;;;4.85;2.77;;;;;;;17.09;67.84;97766.36;1618382;88;29444;-58
2022/09/14 01:07:33;;;;;;;3.77;2.67;;;;;;;17.08;67.70;97756.47;1618390;88;25538;-57
2022/09/14 01:10:35;;;;;;;4.95;3.33;;;;;;;17.08;67.79;97757.86;1618589;88;25608;-57
2022/09/14 01:13:34;;;;;;;4.15;3.05;;;;;;;17.09;67.93;97760.83;1618856;88;26053;-57
2022/09/14 01:16:17;;;;;;;4.60;2.90;;;;;;;17.07;67.95;97752.09;1618922;88;25609;-58
2022/09/14 01:19:00;;;;;;;2.80;2.60;;;;;;;17.07;67.86;97753.48;1617907;87;27473;-57
2022/09/14 01:21:40;;;;;;;5.95;3.00;;;;;;;17.03;67.89;97752.05;1618625;88;25657;-57
2022/09/14 01:24:21;;;;;;;3.50;3.05;;;;;;;17.02;67.93;97753.81;1705216;82;25693;-56
2022/09/14 01:27:21;;;;;;;3.52;2.85;;;;;;;17.00;67.93;97747.27;1710587;83;26206;-57
2022/09/14 01:29:55;;;;;;;4.58;3.00;;;;;;;16.97;67.99;97747.22;1688879;84;25484;-57
2022/09/14 01:32:26;;;;;;;4.58;2.80;;;;;;;16.91;68.05;97748.16;1687961;84;27539;-57
2022/09/14 01:35:20;;;;;;;3.30;2.62;;;;;;;16.83;68.03;97736.79;1688901;84;25509;-57
2022/09/14 01:38:03;;;;;;;3.60;2.80;;;;;;;16.79;68.14;97743.69;1688687;85;25504;-57
2022/09/14 01:40:39;;;;;;;3.55;3.20;;;;;;;16.75;68.15;97735.94;1688963;84;25900;-57
2022/09/14 01:43:25;;;;;;;5.30;2.92;;;;;;;16.71;68.38;97735.89;1689151;84;25657;-57
2022/09/14 01:45:56;;;;;;;4.03;3.22;;;;;;;16.70;68.40;97727.39;1687629;84;27466;-57
2022/09/14 01:48:35;;;;;;;3.40;2.70;;;;;;;16.68;68.37;97726.97;1688954;84;25775;-57
2022/09/14 01:51:11;;;;;;;3.45;2.92;;;;;;;16.65;68.65;97721.61;1683644;85;25501;-57
2022/09/14 01:53:49;;;;;;;3.45;2.90;;;;;;;16.65;68.49;97727.72;1688843;84;26871;-57
2022/09/14 01:56:31;;;;;;;3.80;2.92;;;;;;;16.63;68.57;97725.33;1617973;85;25821;-57
2022/09/14 01:59:20;;;;;;;4.25;3.40;;;;;;;16.59;68.72;97727.27;1612988;88;27497;-57
2022/09/14 02:02:00;;;;;;;3.50;2.80;;;;;;;16.59;68.92;97727.84;1604726;88;25703;-57
2022/09/14 02:04:47;;;;;;;5.28;3.42;;;;;;;16.56;68.84;97727.41;1613331;88;25762;-57
2022/09/14 02:07:14;;;;;;;3.75;2.60;;;;;;;16.56;68.76;97728.80;1685820;84;26163;-57
2022/09/14 02:09:41;;;;;;;3.98;3.50;;;;;;;16.55;68.96;97725.83;1707887;84;25656;-57
2022/09/14 02:12:07;;;;;;;3.85;3.27;;;;;;;16.54;68.91;97724.83;1707958;84;27413;-57
2022/09/14 02:14:34;;;;;;;3.58;3.08;;;;;;;16.54;68.89;97725.62;1707870;84;25672;-57
2022/09/14 02:17:00;;;;;;;5.20;3.05;;;;;;;16.56;68.75;97718.34;1707949;84;25681;-57
2022/09/14 02:19:30;;;;;;;4.40;3.20;;;;;;;16.59;68.77;97717.59;1708123;84;26093;-57
2022/09/14 02:21:56;;;;;;;3.20;2.60;;;;;;;16.61;68.83;97713.06;1707934;84;25493;-57
2022/09/14 02:24:22;;;;;;;3.85;3.25;;;;;;;16.63;68.72;97707.92;1712127;83;27614;-57
2022/09/14 02:26:51;;;;;;;4.65;3.10;;;;;;;16.62;68.79;97704.96;1712449;83;25654;-57
2022/09/14 02:29:17;;;;;;;5.05;2.80;;;;;;;16.62;68.90;97710.50;1682796;85;25646;-57
2022/09/14 02:31:58;;;;;;;4.75;3.10;;;;;;;16.59;68.96;97701.57;1683056;85;26239;-57
2022/09/14 02:35:03;;;;;;;6.17;2.95;;;;;;;16.56;68.88;97703.12;1683236;84;25651;-57
2022/09/14 02:37:37;;;;;;;3.42;2.90;;;;;;;16.51;69.12;97693.77;1682877;85;28177;-57
2022/09/14 02:40:42;;;;;;;4.25;3.20;;;;;;;16.46;69.47;97696.89;1682988;85;25708;-57
2022/09/14 02:43:42;;;;;;;4.12;3.02;;;;;;;16.40;69.49;97691.69;1682856;85;25646;-57
2022/09/14 02:46:37;;;;;;;3.90;3.00;;;;;;;16.35;69.66;97696.16;1682897;85;26899;-57
2022/09/14 02:49:24;;;;;;;4.78;2.67;;;;;;;16.32;69.63;97693.37;1682960;85;25484;-57
2022/09/14 02:52:07;;;;;;;5.15;2.75;;;;;;;16.29;69.65;97686.60;1683442;85;27763;-57
2022/09/14 02:54:51;;;;;;;4.37;2.77;;;;;;;16.28;69.71;97686.40;1682454;85;26005;-57
2022/09/14 02:57:17;;;;;;;5.75;3.50;;;;;;;16.27;69.79;97681.45;1683066;84;25487;-57
2022/09/14 02:59:44;;;;;;;6.50;3.05;;;;;;;16.27;69.71;97678.69;1682947;84;28126;-57
2022/09/14 03:02:10;;;;;;;6.17;3.35;;;;;;;16.28;69.70;97689.16;1682647;85;25997;-57
2022/09/14 03:04:36;;;;;;;4.55;3.08;;;;;;;16.28;69.95;97689.16;1682970;85;28365;-57
2022/09/14 03:07:02;;;;;;;3.52;2.67;;;;;;;16.27;69.86;97692.50;1682803;85;25437;-58
2022/09/14 03:09:28;;;;;;;4.55;3.65;;;;;;;16.23;70.19;97682.00;1683143;85;25662;-57
2022/09/14 03:11:54;;;;;;;4.55;2.90;;;;;;;16.21;70.25;97685.74;1682891;85;25948;-57
2022/09/14 03:14:20;;;;;;;3.47;2.62;;;;;;;16.20;70.16;97687.50;1683153;85;25741;-57
2022/09/14 03:16:46;;;;;;;5.55;2.90;;;;;;;16.18;70.40;97685.11;1683045;85;27383;-57
2022/09/14 03:19:12;;;;;;;4.97;3.12;;;;;;;16.17;70.15;97684.30;1683115;85;25589;-57
2022/09/14 03:21:39;;;;;;;5.53;3.20;;;;;;;16.17;70.04;97683.50;1682892;85;25683;-57
2022/09/14 03:24:06;;;;;;;3.95;2.47;;;;;;;16.15;70.10;97678.34;1671053;85;27016;-57
2022/09/14 03:26:35;;;;;;;4.15;3.20;;;;;;;16.15;70.18;97678.95;1660984;86;25422;-57
2022/09/14 03:28:59;;;;;;;4.30;2.75;;;;;;;16.14;70.09;97680.91;1660570;86;25847;-57
2022/09/14 03:31:26;;;;;;;4.78;2.92;;;;;;;16.13;70.13;97677.14;1661278;85;25448;-57
2022/09/14 03:33:55;;;;;;;5.10;2.83;;;;;;;16.11;70.14;97680.85;1660859;85;25707;-57
2022/09/14 03:36:23;;;;;;;4.40;3.12;;;;;;;16.08;70.30;97676.87;1661043;85;26135;-57
2022/09/14 03:38:53;;;;;;;4.87;2.70;;;;;;;16.09;70.15;97670.17;1660987;85;25419;-57
2022/09/14 03:41:21;;;;;;;3.77;2.90;;;;;;;16.09;70.25;97664.64;1661237;86;27633;-57
2022/09/14 03:43:48;;;;;;;3.02;2.70;;;;;;;16.11;70.11;97669.80;1661059;85;25749;-57
2022/09/14 03:46:19;;;;;;;4.55;3.10;;;;;;;16.10;70.16;97667.64;1661109;85;25492;-57
2022/09/14 03:48:50;;;;;;;4.12;2.85;;;;;;;16.12;70.18;97671.41;1661117;85;26062;-57
2022/09/14 03:51:24;;;;;;;6.55;3.15;;;;;;;16.14;70.20;97674.58;1661136;85;25481;-57
2022/09/14 03:53:54;;;;;;;5.58;2.80;;;;;;;16.17;70.17;97684.30;1661174;85;27455;-57
2022/09/14 03:56:22;;;;;;;9.00;3.67;;;;;;;16.16;70.11;97688.83;1661314;85;26003;-57
2022/09/14 03:58:49;;;;;;;5.40;3.10;;;;;;;16.15;70.17;97685.86;1660976;86;25426;-57
2022/09/14 04:01:19;;;;;;;4.72;2.90;;;;;;;16.16;70.15;97684.68;1660927;85;28142;-57
2022/09/14 04:03:46;;;;;;;5.10;2.90;;;;;;;16.15;70.31;97676.19;1660971;85;25624;-57
2022/09/14 04:06:14;;;;;;;5.22;2.62;;;;;;;16.14;70.05;97674.58;1661248;86;27483;-57
2022/09/14 04:08:43;;;;;;;5.28;2.80;;;;;;;16.12;70.13;97676.33;1660862;85;25668;-57
2022/09/14 04:11:19;;;;;;;5.50;2.83;;;;;;;16.13;70.02;97680.70;1661111;85;25521;-57
2022/09/14 04:13:47;;;;;;;4.42;2.85;;;;;;;16.12;70.09;97681.08;1661355;85;26192;-57
2022/09/14 04:16:15;;;;;;;5.40;2.90;;;;;;;16.12;70.04;97673.56;1661255;85;25465;-57
2022/09/14 04:18:43;;;;;;;4.70;3.08;;;;;;;16.14;70.41;97679.53;1661182;86;27448;-57
2022/09/14 04:21:17;;;;;;;5.53;3.10;;;;;;;16.13;69.92;97677.95;1660737;85;25642;-57
2022/09/14 04:23:44;;;;;;;3.92;2.83;;;;;;;16.14;69.98;97685.05;1678578;83;25436;-57
2022/09/14 04:26:13;;;;;;;3.83;3.10;;;;;;;16.16;70.13;97691.59;1712499;83;26082;-57
2022/09/14 04:28:39;;;;;;;5.78;2.80;;;;;;;16.17;69.95;97689.03;1683012;85;25703;-57
2022/09/14 04:31:07;;;;;;;4.65;2.92;;;;;;;16.17;69.95;97687.06;1683070;85;28483;-57
2022/09/14 04:33:36;;;;;;;3.75;2.98;;;;;;;16.16;69.77;97681.34;1682906;85;25674;-57
2022/09/14 04:36:07;;;;;;;5.95;2.83;;;;;;;16.14;70.02;97674.00;1682917;85;25667;-57
2022/09/14 04:38:35;;;;;;;6.72;3.30;;;;;;;16.14;70.16;97674.58;1682119;85;26262;-58
2022/09/14 04:41:08;;;;;;;4.33;3.30;;;;;;;16.11;70.14;97671.98;1683083;85;25440;-57
2022/09/14 04:43:35;;;;;;;3.42;2.52;;;;;;;16.11;70.23;97673.37;1683044;85;28088;-57
2022/09/14 04:46:05;;;;;;;5.12;3.35;;;;;;;16.07;70.37;97671.73;1683082;85;25544;-57
2022/09/14 04:48:34;;;;;;;4.08;3.00;;;;;;;16.08;70.34;97685.17;1682047;85;25602;-57
2022/09/14 04:51:12;;;;;;;5.85;2.72;;;;;;;16.10;70.34;97684.80;1683031;85;26944;-57
2022/09/14 04:53:40;;;;;;;3.95;2.85;;;;;;;16.09;70.32;97677.69;1682863;85;25686;-57
2022/09/14 04:56:08;;;;;;;5.42;3.50;;;;;;;16.12;70.31;97670.03;1683038;85;27466;-57
2022/09/14 04:58:41;;;;;;;5.00;2.90;;;;;;;16.13;70.36;97662.74;1682975;85;25716;-57
2022/09/14 05:01:14;;;;;;;4.83;2.67;;;;;;;16.15;70.25;97666.52;1682714;85;25438;-57
2022/09/14 05:03:41;;;;;;;2.72;2.52;;;;;;;16.19;70.30;97668.73;1678669;85;26332;-58
2022/09/14 05:06:15;;;;;;;4.12;3.10;;;;;;;16.21;70.10;97662.83;1682716;85;25627;-59
2022/09/14 05:08:43;;;;;;;3.20;2.67;;;;;;;16.23;70.17;97668.78;1683065;85;27382;-57
2022/09/14 05:11:17;;;;;;;3.12;2.77;;;;;;;16.23;70.09;97664.03;1682875;85;25809;-58
2022/09/14 05:13:43;;;;;;;3.10;2.40;;;;;;;16.26;70.20;97670.80;1682629;85;25479;-58
2022/09/14 05:16:20;;;;;;;4.83;2.80;;;;;;;16.24;70.14;97660.11;1681840;85;28170;-57
2022/09/14 05:18:48;;;;;;;4.35;2.50;;;;;;;16.26;70.14;97666.65;1695435;84;25522;-58
2022/09/14 05:21:17;;;;;;;4.17;2.58;;;;;;;16.29;70.00;97663.91;1661801;86;27432;-58
2022/09/14 05:23:44;;;;;;;5.03;2.70;;;;;;;16.34;70.27;97676.60;1688904;84;25669;-57
2022/09/14 05:26:12;;;;;;;5.12;3.12;;;;;;;16.40;70.15;97681.20;1666427;86;25689;-57
2022/09/14 05:28:38;;;;;;;3.47;3.15;;;;;;;16.46;70.13;97682.46;1666011;86;26117;-57
2022/09/14 05:31:09;;;;;;;3.90;3.20;;;;;;;16.51;70.02;97679.38;1645229;86;25571;-57
2022/09/14 05:33:36;;;;;;;4.33;2.85;;;;;;;16.58;69.91;97677.25;1702611;84;27476;-57
2022/09/14 05:36:06;;;;;;;3.98;3.10;;;;;;;16.64;69.78;97679.11;1702061;84;27145;-57
2022/09/14 05:38:36;;;;;;;3.95;2.85;;;;;;;16.75;69.87;97690.30;1702545;84;25650;-57
2022/09/14 05:41:03;;;;;;;4.12;3.00;;;;;;;16.86;69.59;97683.47;1698815;80;26540;-57
2022/09/14 05:43:30;;;;;;;4.00;3.20;;;;;;;16.96;69.44;97683.37;1702312;84;25579;-57
2022/09/14 05:46:02;;;;;;;8.43;3.10;;;;;;;17.05;69.73;97688.81;1702513;84;28172;-57
2022/09/14 05:48:33;;;;;;;5.78;3.12;;;;;;;17.11;69.43;97683.75;1702616;84;25484;-57
2022/09/14 05:51:03;;;;;;;5.95;3.25;;;;;;;17.22;69.41;97680.27;1702087;84;25469;-57
2022/09/14 05:53:30;;;;;;;4.25;3.15;;;;;;;17.32;69.15;97676.78;1702356;84;26000;-57
2022/09/14 05:56:07;;;;;;;8.05;3.30;;;;;;;17.45;68.95;97681.45;1702508;84;25485;-57
2022/09/14 05:58:35;;;;;;;3.58;2.98;;;;;;;17.53;68.85;97680.30;1702285;84;28283;-58
2022/09/14 06:01:11;;;;;;;3.50;2.90;;;;;;;17.62;68.14;97681.95;1702417;84;25524;-57
2022/09/14 06:03:38;;;;;;;5.35;3.20;;;;;;;17.69;68.56;97684.77;1701840;84;25644;-57
2022/09/14 06:06:07;;;;;;;3.67;2.90;;;;;;;17.79;68.34;97690.96;1702746;84;26100;-57
2022/09/14 06:08:34;;;;;;;5.10;3.30;;;;;;;17.87;68.18;97691.80;1702369;84;25476;-57
2022/09/14 06:11:14;;;;;;;5.25;3.30;;;;;;;17.96;67.97;97694.83;1702431;84;27373;-57
2022/09/14 06:13:43;;;;;;;3.95;3.27;;;;;;;18.03;67.76;97696.25;1702241;84;25542;-57
2022/09/14 06:16:13;;;;;;;7.92;3.15;;;;;;;18.08;67.98;97686.77;1702489;84;25688;-57
2022/09/14 06:18:42;;;;;;;7.17;2.80;;;;;;;18.12;67.58;97682.86;1702510;84;25705;-57
2022/09/14 06:21:13;;;;;;;4.40;2.67;;;;;;;18.16;67.09;97678.70;1702418;84;25487;-57
2022/09/14 06:23:40;;;;;;;4.10;2.83;;;;;;;18.22;66.57;97682.70;1701641;83;25857;-57
2022/09/14 06:26:07;;;;;;;4.87;3.30;;;;;;;18.27;66.82;97679.56;1689573;84;25443;-57
2022/09/14 06:28:33;;;;;;;3.80;2.87;;;;;;;18.32;66.70;97685.32;1689713;84;25638;-57
2022/09/14 06:31:06;;;;;;;6.15;3.35;;;;;;;18.37;66.35;97686.34;1689733;84;26239;-57
2022/09/14 06:33:34;;;;;;;6.70;3.02;;;;;;;18.43;67.10;97686.75;1689476;84;25479;-57
2022/09/14 06:36:08;;;;;;;4.00;2.80;;;;;;;18.49;66.67;97691.32;1689668;84;27448;-57
2022/09/14 06:38:33;;;;;;;4.53;3.00;;;;;;;18.55;67.19;97689.17;1689167;84;25431;-57
2022/09/14 06:41:03;;;;;;;5.25;3.00;;;;;;;18.65;67.10;97686.22;1689308;84;25416;-57
2022/09/14 06:43:34;;;;;;;5.62;2.90;;;;;;;18.75;67.03;97692.99;1689780;84;25656;-57
2022/09/14 06:46:03;;;;;;;;;;;;;;;18.78;66.72;97695.56;1692361;84;25457;-57
2022/09/14 06:48:36;;;;;;;3.62;3.00;;;;;;;18.83;67.02;97695.19;1689036;84;27364;-57
2022/09/14 06:51:30;;;;;;;3.65;3.15;;;;;;;18.84;66.51;97690.41;1689501;84;25456;-57
2022/09/14 06:53:59;;;;;;;8.38;2.83;;;;;;;18.92;66.54;97697.58;1689261;84;25512;-57
2022/09/14 06:56:27;;;;;;;3.98;2.90;;;;;;;18.94;66.76;97693.22;1689661;84;26139;-57
2022/09/14 06:58:53;;;;;;;5.00;3.15;;;;;;;18.99;65.88;97689.84;1689700;84;25440;-58
2022/09/14 07:01:25;;;;;;;6.15;3.35;;;;;;;19.01;66.18;97689.67;1689304;84;29429;-57
2022/09/14 07:03:52;;;;;;;5.53;3.10;;;;;;;19.03;65.75;97691.44;1689518;84;25793;-57
2022/09/14 07:06:25;;;;;;;5.55;3.20;;;;;;;19.01;64.88;97681.34;1689564;84;25635;-57
2022/09/14 07:08:53;;;;;;;4.25;3.50;;;;;;;19.04;65.96;97686.10;1689336;84;26090;-57
2022/09/14 07:11:24;;;;;;;3.45;3.00;;;;;;;19.05;65.24;97685.48;1689426;84;25480;-57
2022/09/14 07:13:53;;;;;;;5.75;3.00;;;;;;;19.04;65.58;97686.69;1689572;84;27374;-57
2022/09/14 07:16:21;;;;;;;6.42;3.02;;;;;;;18.98;65.38;97686.88;1689234;84;25500;-57
2022/09/14 07:18:47;;;;;;;4.10;2.58;;;;;;;18.89;65.17;97681.12;1689540;84;25503;-57
2022/09/14 07:21:17;;;;;;;6.28;3.12;;;;;;;18.81;65.25;97683.09;1689219;84;26126;-57
2022/09/14 07:23:45;;;;;;;7.25;3.40;;;;;;;18.76;65.59;97681.28;1689571;84;25592;-58
2022/09/14 07:26:28;;;;;;;7.20;3.33;;;;;;;18.76;65.77;97684.05;1715805;83;27389;-57
2022/09/14 07:29:02;;;;;;;6.85;3.30;;;;;;;18.81;66.21;97680.91;1716573;83;25697;-57
2022/09/14 07:31:33;;;;;;;5.03;3.17;;;;;;;18.84;65.68;97682.09;1717826;83;25663;-58
2022/09/14 07:34:03;;;;;;;8.95;3.45;;;;;;;18.92;66.63;97686.48;1713047;83;26109;-58
2022/09/14 07:36:32;;;;;;;9.93;3.15;;;;;;;19.01;66.12;97686.89;1717532;83;25519;-58
2022/09/14 07:38:59;;;;;;;5.60;3.62;;;;;;;19.11;65.81;97690.11;1717606;83;27383;-58
2022/09/14 07:41:29;;;;;;;4.17;3.12;;;;;;;19.17;65.43;97692.08;1717460;83;25645;-58
2022/09/14 07:43:59;;;;;;;6.67;3.20;;;;;;;19.23;65.29;97697.25;1718046;83;25514;-59
2022/09/14 07:46:28;;;;;;;6.42;3.17;;;;;;;19.26;65.01;97699.23;1717880;83;26032;-59
2022/09/14 07:48:58;;;;;;;7.42;3.33;;;;;;;19.33;65.80;97693.67;1716604;83;25677;-57
2022/09/14 07:51:26;;;;;;;3.45;2.83;;;;;;;19.38;65.43;97698.84;1717581;83;27367;-58
2022/09/14 07:53:54;;;;;;;4.90;2.92;;;;;;;19.43;65.92;97685.92;1717423;83;25464;-58
2022/09/14 07:56:21;;;;;;;5.47;3.75;;;;;;;19.45;64.37;97686.92;1717346;83;25649;-58
2022/09/14 07:58:50;;;;;;;4.75;3.40;;;;;;;19.50;66.07;97684.34;1717692;83;25938;-58
2022/09/14 08:01:17;;;;;;;7.58;3.50;;;;;;;19.60;65.54;97686.92;1691042;83;25661;-58
2022/09/14 08:03:47;;;;;;;6.47;4.53;;;;;;;19.65;64.90;97680.95;1717493;83;27480;-57
2022/09/14 08:06:21;;;;;;;6.05;4.15;;;;;;;19.67;65.14;97685.52;1717572;83;25976;-57
2022/09/14 08:08:51;;;;;;;4.28;3.62;;;;;;;19.74;66.43;97679.94;1717377;83;25454;-58
2022/09/14 08:11:28;;;;;;;7.33;3.60;;;;;;;19.76;65.62;97683.13;1717706;83;26747;-58
2022/09/14 08:14:00;;;;;;;5.50;3.37;;;;;;;19.82;65.83;97686.28;1716646;83;25698;-58
2022/09/14 08:16:29;;;;;;;5.90;3.33;;;;;;;19.81;65.20;97684.70;1717717;83;27284;-58
2022/09/14 08:19:02;;;;;;;4.37;3.27;;;;;;;19.84;66.09;97686.69;1717540;83;25813;-58
2022/09/14 08:21:31;;;;;;;4.35;3.50;;;;;;;19.84;66.27;97685.88;1717640;83;25481;-58
2022/09/14 08:24:01;;;;;;;5.00;3.20;;;;;;;19.92;66.41;97683.30;1717557;83;26069;-58
2022/09/14 08:26:28;;;;;;;4.70;3.20;;;;;;;20.00;65.92;97689.02;1696758;83;25417;-58
2022/09/14 08:28:55;;;;;;;7.28;3.30;;;;;;;20.13;65.73;97689.41;1663947;86;27452;-58
2022/09/14 08:31:25;;;;;;;5.35;3.50;;;;;;;20.26;65.59;97685.58;1699865;84;25999;-58
2022/09/14 08:33:56;;;;;;;9.50;3.92;;;;;;;20.37;65.41;97685.54;1700526;84;25554;-58
2022/09/14 08:36:26;;;;;;;4.20;3.40;;;;;;;20.44;64.98;97682.72;1699896;84;26049;-58
2022/09/14 08:38:53;;;;;;;6.22;3.35;;;;;;;20.53;65.72;97689.23;1700382;84;25599;-58
2022/09/14 08:41:46;;;;;;;5.85;3.58;;;;;;;20.57;64.85;97694.79;1700137;84;27479;-59
2022/09/14 08:44:30;;;;;;;4.37;3.55;;;;;;;20.67;64.91;97691.77;1699863;84;25589;-58
2022/09/14 08:47:20;;;;;;;4.67;3.77;;;;;;;20.67;64.29;97688.98;1700268;84;25883;-58
2022/09/14 08:50:12;;;;;;;5.90;3.20;;;;;;;20.61;64.57;97691.37;1699564;84;26031;-58
2022/09/14 08:52:51;;;;;;;4.47;3.30;;;;;;;20.59;63.95;97689.63;1699916;84;25460;-59
2022/09/14 08:55:44;;;;;;;5.62;3.40;;;;;;;20.56;64.19;97690.43;1699914;84;26713;-58
2022/09/14 08:58:33;;;;;;;3.60;3.12;;;;;;;20.54;63.71;97696.40;1699986;84;25621;-58
2022/09/14 09:01:35;;;;;;;6.35;3.62;;;;;;;20.43;64.29;97694.25;1699901;84;25484;-59
2022/09/14 09:04:28;;;;;;;4.60;3.58;;;;;;;20.40;64.15;97704.20;1618017;88;26874;-58
2022/09/14 09:07:21;;;;;;;3.70;3.00;;;;;;;20.40;64.59;97705.60;1618372;88;25746;-59
2022/09/14 09:09:53;;;;;;;3.62;3.12;;;;;;;20.40;64.48;97702.02;1555169;92;27596;-58
2022/09/14 09:12:34;;;;;;;5.47;3.35;;;;;;;20.32;65.06;97699.86;1555099;92;25780;-58
2022/09/14 09:15:03;;;;;;;;;;;;;;;20.28;64.74;97699.89;1520195;94;25818;-58
2022/09/14 09:17:43;;;;;;;4.40;3.22;;;;;;;20.27;64.82;97697.52;1555174;92;26855;-58
2022/09/14 09:20:29;;;;;;;3.95;2.98;;;;;;;20.30;65.42;97688.36;1518671;94;25754;-58
2022/09/14 09:23:16;;;;;;;6.58;3.30;;;;;;;20.33;64.74;97697.29;1527709;93;28520;-58
2022/09/14 09:26:00;;;;;;;5.97;3.40;;;;;;;20.29;65.63;97697.30;1549757;92;25746;-58
2022/09/14 09:28:28;;;;;;;5.40;3.10;;;;;;;20.31;65.09;97691.33;1558633;91;25923;-58
2022/09/14 09:31:01;;;;;;;6.10;3.60;;;;;;;20.27;65.17;97687.16;1584176;90;26200;-58
2022/09/14 09:33:28;;;;;;;5.28;3.40;;;;;;;20.23;65.31;97688.39;1583000;90;25663;-59
2022/09/14 09:35:55;;;;;;;6.45;3.80;;;;;;;20.24;66.24;97690.77;1584339;90;27608;-58
2022/09/14 09:38:26;;;;;;;9.85;3.72;;;;;;;20.17;65.81;97691.58;1584310;90;25790;-58
2022/09/14 09:40:58;;;;;;;5.92;3.95;;;;;;;20.20;66.13;97682.25;1646887;86;25485;-59
2022/09/14 09:43:26;;;;;;;6.00;3.65;;;;;;;20.26;66.03;97685.58;1660368;85;26049;-59
2022/09/14 09:46:04;;;;;;;3.85;3.40;;;;;;;20.13;66.09;97688.61;1660854;86;25712;-58
2022/09/14 09:48:39;;;;;;;5.37;3.75;;;;;;;20.04;67.14;97679.31;1660774;86;27493;-58
2022/09/14 09:51:16;;;;;;;5.90;3.42;;;;;;;19.93;66.30;97689.84;1660847;86;25748;-58
2022/09/14 09:53:56;;;;;;;6.45;3.35;;;;;;;19.80;66.85;97688.06;1660990;86;25498;-58
2022/09/14 09:56:35;;;;;;;;;;;;;;;19.66;67.19;97683.33;1663153;86;26791;-58
2022/09/14 09:59:02;;;;;;;4.75;3.30;;;;;;;19.58;67.46;97684.55;1645589;85;26607;-58
2022/09/14 10:01:33;;;;;;;5.22;3.35;;;;;;;19.48;67.97;97675.02;1704036;84;27757;-59
2022/09/14 10:04:20;;;;;;;5.10;3.90;;;;;;;19.42;68.15;97678.80;1668094;84;25776;-58
2022/09/14 10:06:51;;;;;;;8.50;3.60;;;;;;;19.39;68.46;97684.34;1656772;86;25783;-59
2022/09/14 10:09:22;;;;;;;5.58;3.72;;;;;;;19.35;69.66;97683.55;1667709;85;26117;-58
2022/09/14 10:12:01;;;;;;;4.42;3.60;;;;;;;19.28;69.99;97683.75;1665576;84;25678;-58
2022/09/14 10:14:35;;;;;;;3.77;2.90;;;;;;;19.27;71.98;97675.23;1663577;85;28154;-58
2022/09/14 10:17:22;;;;;;;3.50;3.00;;;;;;;19.24;71.52;97670.47;1672889;85;25702;-59
2022/09/14 10:19:52;;;;;;;4.72;4.28;;;;;;;19.13;72.37;97672.44;1672905;85;25699;-58
2022/09/14 10:22:35;;;;;;;4.45;3.72;;;;;;;18.99;72.85;97669.02;1672899;85;25997;-58
2022/09/14 10:25:15;;;;;;;5.40;4.30;;;;;;;18.90;72.68;97673.58;1674693;84;25735;-59
2022/09/14 10:27:55;;;;;;;5.17;3.70;;;;;;;18.85;73.42;97670.59;1689782;84;27505;-58
2022/09/14 10:30:36;;;;;;;5.33;3.90;;;;;;;18.84;74.16;97675.16;1690236;84;25722;-58
2022/09/14 10:33:05;;;;;;;;;;;;;;;18.81;74.40;97667.83;1692624;84;25687;-59
2022/09/14 10:35:58;;;;;;;4.78;4.20;;;;;;;18.77;74.71;97668.40;1657815;85;26472;-58
2022/09/14 10:38:57;;;;;;;5.45;4.20;;;;;;;18.77;75.17;97666.23;1696137;83;25653;-59
2022/09/14 10:41:47;;;;;;;5.00;4.50;;;;;;;18.76;75.63;97668.79;1668192;85;26093;-58
2022/09/14 10:44:42;;;;;;;;;;;;;;;18.80;75.82;97664.84;1676904;85;25801;-59
2022/09/14 10:47:32;;;;;;;8.55;4.62;;;;;;;18.84;76.99;97673.77;1646187;84;25855;-59
2022/09/14 10:50:28;;;;;;;5.20;4.15;;;;;;;18.80;76.57;97665.45;1638089;87;26268;-59
2022/09/14 10:53:12;;;;;;;7.00;4.70;;;;;;;18.84;76.91;97657.11;1637797;87;25729;-59
2022/09/14 10:56:00;;;;;;;8.00;4.00;;;;;;;18.83;77.04;97659.11;1638472;87;27420;-59
2022/09/14 10:58:43;;;;;;;5.72;4.37;;;;;;;18.82;77.10;97661.67;1601615;89;25731;-57
2022/09/14 11:01:50;;;;;;;5.85;4.60;;;;;;;18.81;77.57;97660.89;1601337;89;25766;-58
2022/09/14 11:04:40;;;;;;;7.40;4.35;;;;;;;18.84;77.47;97661.27;1621804;88;26215;-58
2022/09/14 11:07:33;;;;;;;4.78;4.22;;;;;;;18.82;78.22;97658.89;1633363;87;25690;-57
2022/09/14 11:10:29;;;;;;;6.75;4.78;;;;;;;18.75;78.39;97655.53;1633154;87;28373;-57
2022/09/14 11:13:27;;;;;;;7.22;5.10;;;;;;;18.71;78.68;97658.09;1633110;87;25945;-57
2022/09/14 11:16:33;;;;;;;5.42;4.45;;;;;;;18.65;78.88;97652.14;1632817;87;25277;-57
2022/09/14 11:19:20;;;;;;;6.08;4.65;;;;;;;18.53;79.88;97644.38;1633078;87;26049;-58
2022/09/14 11:22:15;;;;;;;4.95;4.45;;;;;;;18.49;79.14;97646.94;1633137;87;25630;-56
2022/09/14 11:24:59;;;;;;;6.80;4.85;;;;;;;18.43;79.51;97646.53;1632958;87;27413;-57
2022/09/14 11:27:55;;;;;;;6.15;5.22;;;;;;;18.40;79.79;97649.48;1638647;86;25662;-57
2022/09/14 11:30:29;;;;;;;8.30;5.60;;;;;;;18.43;80.70;97647.31;1546409;92;26239;-57
2022/09/14 11:33:03;;;;;;;6.60;4.30;;;;;;;18.50;80.96;97646.55;1547757;92;26113;-56
2022/09/14 11:35:59;;;;;;;7.28;5.05;;;;;;;18.43;81.04;97654.86;1563953;91;25574;-59
2022/09/14 11:38:30;;;;;;;6.72;5.47;;;;;;;18.39;81.33;97653.45;1490134;95;28589;-59
2022/09/14 11:41:32;;;;;;;6.60;5.17;;;;;;;18.29;81.47;97650.05;1496763;95;25846;-60
2022/09/14 11:44:04;;;;;;;5.67;4.55;;;;;;;18.29;82.28;97650.05;1504969;94;25788;-58
2022/09/14 11:46:37;;;;;;;8.05;4.75;;;;;;;18.29;82.26;97654.21;1545121;92;25948;-59
2022/09/14 11:49:21;;;;;;;4.33;3.62;;;;;;;18.20;82.01;97655.97;1545283;92;25772;-62
2022/09/14 11:52:06;;;;;;;5.95;4.42;;;;;;;18.11;82.76;97652.75;1544665;92;28554;-61
2022/09/14 11:54:49;;;;;;;5.85;3.80;;;;;;;18.05;82.98;97656.47;1544974;92;25581;-63
2022/09/14 11:57:23;;;;;;;5.83;3.40;;;;;;;17.99;83.45;97651.09;1545298;92;25561;-62
2022/09/14 12:00:01;;;;;;;4.75;3.60;;;;;;;17.93;83.39;97650.06;1545157;92;26445;-62
2022/09/14 12:02:34;;;;;;;4.33;3.83;;;;;;;17.90;84.25;97653.61;1544237;92;25774;-62
2022/09/14 12:05:12;;;;;;;5.05;3.30;;;;;;;17.86;83.85;97652.00;1570733;90;27555;-61
2022/09/14 12:07:50;;;;;;;3.58;3.08;;;;;;;17.80;83.88;97657.12;1587122;89;25854;-62
2022/09/14 12:10:20;;;;;;;3.35;3.02;;;;;;;17.71;84.03;97649.17;1587364;90;25785;-61